createdAt,value
2019-05-05T00:02:04.820Z,4.30
2019-05-05T00:04:47.382Z,4.40
2019-05-05T00:07:18.182Z,4.30
2019-05-05T00:09:47.344Z,4.40
2019-05-05T00:12:25.462Z,4.40
2019-05-05T00:14:56.282Z,4.50
2019-05-05T00:17:27.060Z,4.50
2019-05-05T00:19:56.339Z,4.40
2019-05-05T00:22:25.455Z,4.50
2019-05-05T00:24:54.732Z,4.50
2019-05-05T00:27:25.411Z,4.50
2019-05-05T00:29:54.836Z,4.50
2019-05-05T00:32:24.583Z,4.50
2019-05-05T00:34:55.139Z,4.60
2019-05-05T00:37:25.629Z,4.60
2019-05-05T00:39:55.095Z,4.60
2019-05-05T00:42:24.829Z,4.50
2019-05-05T00:44:54.900Z,4.50
2019-05-05T00:47:45.291Z,4.40
2019-05-05T00:50:16.105Z,4.40
2019-05-05T00:52:45.411Z,4.40
2019-05-05T00:55:15.206Z,4.40
2019-05-05T00:57:45.476Z,4.40
2019-05-05T01:00:18.779Z,4.30
2019-05-05T01:02:49.700Z,4.40
2019-05-05T01:05:25.189Z,4.40
2019-05-05T01:07:54.773Z,4.30
2019-05-05T01:10:25.174Z,4.40
2019-05-05T01:12:57.375Z,4.40
2019-05-05T01:15:27.699Z,4.40
2019-05-05T01:17:56.829Z,4.40
2019-05-05T01:20:26.071Z,4.30
2019-05-05T01:22:55.430Z,4.20
2019-05-05T01:25:25.476Z,4.30
2019-05-05T01:27:54.774Z,4.40
2019-05-05T01:30:29.647Z,4.40
2019-05-05T01:33:15.475Z,4.50
2019-05-05T01:35:45.620Z,4.50
2019-05-05T01:38:31.499Z,4.60
2019-05-05T01:41:04.190Z,4.60
2019-05-05T01:43:34.645Z,4.60
2019-05-05T01:46:05.161Z,4.50
2019-05-05T01:48:35.119Z,4.50
2019-05-05T01:51:05.053Z,4.40
2019-05-05T01:53:34.937Z,4.30
2019-05-05T01:56:05.305Z,4.40
2019-05-05T01:58:34.961Z,4.40
2019-05-05T02:01:04.994Z,4.50
2019-05-05T02:03:34.981Z,4.40
2019-05-05T02:06:05.274Z,4.40
2019-05-05T02:08:35.062Z,4.40
2019-05-05T02:11:05.244Z,4.50
2019-05-05T02:13:34.761Z,4.40
2019-05-05T02:16:04.754Z,4.30
2019-05-05T02:18:34.576Z,4.30
2019-05-05T02:21:05.408Z,4.30
2019-05-05T02:23:35.303Z,4.40
2019-05-05T02:26:05.796Z,4.40
2019-05-05T02:28:36.602Z,4.40
2019-05-05T02:31:25.266Z,4.40
2019-05-05T02:33:56.592Z,4.40
2019-05-05T02:36:25.724Z,4.40
2019-05-05T02:38:56.685Z,4.40
2019-05-05T02:41:26.033Z,4.40
2019-05-05T02:43:55.849Z,4.40
2019-05-05T02:46:35.931Z,4.30
2019-05-05T02:49:05.675Z,4.30
2019-05-05T02:51:35.596Z,4.30
2019-05-05T02:54:05.939Z,4.30
2019-05-05T02:56:46.065Z,4.40
2019-05-05T02:59:16.902Z,4.40
2019-05-05T03:01:47.806Z,4.50
2019-05-05T03:04:16.960Z,4.50
2019-05-05T03:06:47.456Z,4.40
2019-05-05T03:09:16.628Z,4.40
2019-05-05T03:11:46.048Z,4.60
2019-05-05T03:14:15.221Z,4.70
2019-05-05T03:16:44.384Z,4.70
2019-05-05T03:19:14.213Z,4.70
2019-05-05T03:21:44.140Z,4.60
2019-05-05T03:24:14.355Z,4.50
2019-05-05T03:26:44.463Z,4.50
2019-05-05T03:29:21.077Z,4.60
2019-05-05T03:31:50.290Z,4.70
2019-05-05T03:34:20.014Z,4.80
2019-05-05T03:36:49.183Z,4.80
2019-05-05T03:39:26.027Z,4.70
2019-05-05T03:41:59.881Z,4.70
2019-05-05T03:44:30.675Z,4.70
2019-05-05T03:46:59.851Z,4.80
2019-05-05T03:49:28.997Z,4.90
2019-05-05T03:51:58.170Z,4.90
2019-05-05T03:54:27.575Z,5.00
2019-05-05T03:57:09.042Z,5.00
2019-05-05T03:59:44.091Z,5.00
2019-05-05T04:02:17.575Z,4.80
2019-05-05T04:04:48.393Z,4.70
2019-05-05T04:07:17.579Z,4.70
2019-05-05T04:09:46.790Z,4.60
2019-05-05T04:12:16.122Z,4.70
2019-05-05T04:14:45.333Z,4.70
2019-05-05T04:17:33.519Z,4.80
2019-05-05T04:20:19.255Z,4.80
2019-05-05T04:22:49.486Z,4.80
2019-05-05T04:25:18.643Z,4.90
2019-05-05T04:27:47.861Z,5.00
2019-05-05T04:30:17.027Z,5.00
2019-05-05T04:32:46.186Z,5.00
2019-05-05T04:35:15.367Z,5.10
2019-05-05T04:37:44.526Z,5.10
2019-05-05T04:40:14.782Z,5.10
2019-05-05T04:42:44.362Z,5.00
2019-05-05T04:45:14.845Z,5.00
2019-05-05T04:47:45.805Z,5.10
2019-05-05T04:50:19.283Z,5.00
2019-05-05T04:52:50.014Z,5.10
2019-05-05T04:55:20.280Z,5.20
2019-05-05T04:57:49.434Z,5.20
2019-05-05T05:00:18.598Z,5.30
2019-05-05T05:02:58.642Z,5.40
2019-05-05T05:05:33.764Z,5.40
2019-05-05T05:08:03.697Z,5.50
2019-05-05T05:10:34.590Z,5.60
2019-05-05T05:13:04.651Z,5.60
2019-05-05T05:15:34.188Z,5.60
2019-05-05T05:18:05.085Z,5.70
2019-05-05T05:20:34.292Z,5.70
2019-05-05T05:23:03.752Z,5.80
2019-05-05T05:25:34.646Z,5.80
2019-05-05T05:28:04.384Z,5.70
2019-05-05T05:30:34.714Z,5.70
2019-05-05T05:33:04.790Z,5.60
2019-05-05T05:35:33.962Z,5.50
2019-05-05T05:38:04.618Z,5.40
2019-05-05T05:40:48.038Z,5.50
2019-05-05T05:43:18.894Z,5.60
2019-05-05T05:45:55.729Z,5.80
2019-05-05T05:48:29.502Z,5.90
2019-05-05T05:51:00.314Z,6.10
2019-05-05T05:53:29.488Z,6.10
2019-05-05T05:55:58.648Z,6.20
2019-05-05T05:58:27.847Z,6.20
2019-05-05T06:00:57.795Z,6.20
2019-05-05T06:03:27.013Z,6.30
2019-05-05T06:05:56.254Z,6.30
2019-05-05T06:08:25.399Z,6.40
2019-05-05T06:10:54.837Z,6.40
2019-05-05T06:13:24.301Z,6.60
2019-05-05T06:15:53.751Z,6.50
2019-05-05T06:18:24.318Z,6.50
2019-05-05T06:20:53.866Z,6.50
2019-05-05T06:23:24.038Z,6.40
2019-05-05T06:25:55.097Z,6.50
2019-05-05T06:28:24.563Z,6.40
2019-05-05T06:30:54.685Z,6.40
2019-05-05T06:33:24.257Z,6.30
2019-05-05T06:35:54.575Z,6.30
2019-05-05T06:38:24.270Z,6.30
2019-05-05T06:41:00.738Z,6.20
2019-05-05T06:43:49.849Z,6.20
2019-05-05T06:46:26.521Z,6.30
2019-05-05T06:48:55.711Z,6.40
2019-05-05T06:51:24.929Z,6.30
2019-05-05T06:53:54.135Z,6.30
2019-05-05T06:56:23.848Z,6.40
2019-05-05T06:58:54.062Z,6.40
2019-05-05T07:01:24.785Z,6.50
2019-05-05T07:03:54.229Z,6.60
2019-05-05T07:06:23.980Z,6.80
2019-05-05T07:08:54.573Z,6.70
2019-05-05T07:11:23.992Z,6.60
2019-05-05T07:13:53.764Z,6.60
2019-05-05T07:16:24.301Z,6.60
2019-05-05T07:18:54.040Z,6.60
2019-05-05T07:21:25.151Z,6.50
2019-05-05T07:23:54.293Z,6.50
2019-05-05T07:26:23.889Z,6.50
2019-05-05T07:28:54.326Z,6.50
2019-05-05T07:31:23.892Z,6.60
2019-05-05T07:33:54.483Z,6.60
2019-05-05T07:36:40.660Z,6.60
2019-05-05T07:39:11.092Z,6.60
2019-05-05T07:41:40.691Z,6.50
2019-05-05T07:44:25.096Z,6.60
2019-05-05T07:46:41.047Z,6.60
2019-05-05T07:49:10.241Z,6.70
2019-05-05T07:51:39.377Z,6.90
2019-05-05T07:54:08.564Z,7.10
2019-05-05T07:56:37.763Z,7.30
2019-05-05T07:59:07.502Z,7.40
2019-05-05T08:01:36.651Z,7.40
2019-05-05T08:04:05.814Z,7.50
2019-05-05T08:06:34.965Z,7.70
2019-05-05T08:09:05.550Z,8.00
2019-05-05T08:11:35.841Z,8.20
2019-05-05T08:14:05.075Z,8.10
2019-05-05T08:16:53.622Z,8.20
2019-05-05T08:19:27.206Z,8.30
2019-05-05T08:21:56.343Z,8.30
2019-05-05T08:24:30.104Z,8.40
2019-05-05T08:27:16.303Z,8.50
2019-05-05T08:29:47.240Z,8.70
2019-05-05T08:32:23.912Z,8.70
2019-05-05T08:34:59.848Z,8.40
2019-05-05T08:37:23.936Z,8.30
2019-05-05T08:39:54.036Z,8.30
2019-05-05T08:42:24.638Z,8.50
2019-05-05T08:44:54.168Z,8.50
2019-05-05T08:47:24.586Z,8.50
2019-05-05T08:49:54.337Z,8.40
2019-05-05T08:52:23.907Z,8.30
2019-05-05T08:54:54.128Z,8.40
2019-05-05T08:57:23.718Z,8.70
2019-05-05T08:59:54.495Z,8.80
2019-05-05T09:02:24.052Z,8.90
2019-05-05T09:04:53.894Z,9.00
2019-05-05T09:07:24.328Z,8.90
2019-05-05T09:09:54.828Z,9.10
2019-05-05T09:12:23.998Z,9.30
2019-05-05T09:14:53.873Z,9.60
2019-05-05T09:17:24.342Z,9.80
2019-05-05T09:19:54.044Z,9.30
2019-05-05T09:22:24.583Z,9.20
2019-05-05T09:25:04.611Z,9.70
2019-05-05T09:27:44.128Z,10.10
2019-05-05T09:30:14.635Z,10.50
2019-05-05T09:32:43.986Z,10.90
2019-05-05T09:35:14.250Z,11.20
2019-05-05T09:37:44.351Z,11.60
2019-05-05T09:40:15.338Z,11.70
2019-05-05T09:42:44.603Z,11.10
2019-05-05T09:45:14.075Z,10.70
2019-05-05T09:47:44.990Z,10.50
2019-05-05T09:50:15.923Z,10.50
2019-05-05T09:52:45.125Z,10.30
2019-05-05T09:55:14.337Z,10.00
2019-05-05T09:57:43.931Z,9.90
2019-05-05T10:00:14.386Z,9.80
2019-05-05T10:02:44.173Z,9.80
2019-05-05T10:05:14.645Z,10.10
2019-05-05T10:07:44.169Z,10.30
2019-05-05T10:10:13.884Z,10.50
2019-05-05T10:12:44.601Z,10.70
2019-05-05T10:15:14.077Z,10.60
2019-05-05T10:17:43.865Z,10.40
2019-05-05T10:20:14.567Z,10.60
2019-05-05T10:22:44.935Z,10.50
2019-05-05T10:25:25.902Z,10.40
2019-05-05T10:27:55.507Z,10.40
2019-05-05T10:30:24.648Z,10.30
2019-05-05T10:32:54.567Z,10.10
2019-05-05T10:35:23.954Z,10.50
2019-05-05T10:37:54.539Z,11.20
2019-05-05T10:40:26.088Z,11.70
2019-05-05T10:42:55.238Z,11.60
2019-05-05T10:45:24.715Z,11.50
2019-05-05T10:47:54.329Z,11.30
2019-05-05T10:50:24.651Z,10.90
2019-05-05T10:52:57.703Z,10.60
2019-05-05T10:55:27.289Z,10.30
2019-05-05T10:58:00.114Z,10.10
2019-05-05T11:00:44.545Z,10.00
2019-05-05T11:03:15.073Z,9.90
2019-05-05T11:05:45.131Z,9.80
2019-05-05T11:08:15.599Z,9.70
2019-05-05T11:10:45.288Z,9.50
2019-05-05T11:13:15.681Z,9.60
2019-05-05T11:15:46.483Z,9.70
2019-05-05T11:18:15.736Z,9.50
2019-05-05T11:20:45.373Z,9.30
2019-05-05T11:23:15.262Z,9.20
2019-05-05T11:25:49.936Z,8.90
2019-05-05T11:28:22.462Z,8.50
2019-05-05T11:30:53.621Z,8.20
2019-05-05T11:33:30.032Z,8.00
2019-05-05T11:36:20.582Z,7.90
2019-05-05T11:38:47.674Z,7.70
2019-05-05T11:41:17.127Z,7.60
2019-05-05T11:43:46.596Z,7.40
2019-05-05T11:46:15.770Z,7.40
2019-05-05T11:48:45.154Z,7.30
2019-05-05T11:51:15.054Z,7.50
2019-05-05T11:53:44.855Z,8.00
2019-05-05T11:56:15.240Z,8.50
2019-05-05T11:58:48.945Z,8.90
2019-05-05T12:01:18.154Z,9.60
2019-05-05T12:03:47.358Z,10.10
2019-05-05T12:06:16.878Z,10.20
2019-05-05T12:08:46.154Z,9.90
2019-05-05T12:11:15.676Z,10.30
2019-05-05T12:13:44.936Z,10.30
2019-05-05T12:16:15.878Z,9.90
2019-05-05T12:18:45.192Z,9.70
2019-05-05T12:21:14.402Z,9.60
2019-05-05T12:23:44.470Z,9.90
2019-05-05T12:26:18.172Z,10.20
2019-05-05T12:28:54.951Z,10.20
2019-05-05T12:31:28.758Z,10.20
2019-05-05T12:33:57.941Z,10.70
2019-05-05T12:36:27.084Z,11.00
2019-05-05T12:38:56.241Z,11.50
2019-05-05T12:41:25.479Z,11.90
2019-05-05T12:43:55.099Z,12.10
2019-05-05T12:46:29.096Z,12.10
2019-05-05T12:49:00.015Z,12.00
2019-05-05T12:51:29.241Z,11.80
2019-05-05T12:53:58.457Z,11.90
2019-05-05T12:56:27.635Z,11.60
2019-05-05T12:58:56.805Z,11.40
2019-05-05T13:01:39.881Z,11.30
2019-05-05T13:04:09.073Z,11.10
2019-05-05T13:06:38.538Z,10.90
2019-05-05T13:09:07.910Z,10.90
2019-05-05T13:11:37.337Z,11.30
2019-05-05T13:14:06.519Z,11.70
2019-05-05T13:16:35.835Z,11.80
2019-05-05T13:19:06.647Z,11.70
2019-05-05T13:21:44.220Z,11.50
2019-05-05T13:24:31.847Z,11.40
2019-05-05T13:27:08.731Z,10.80
2019-05-05T13:29:33.866Z,10.20
2019-05-05T13:32:03.690Z,9.40
2019-05-05T13:34:33.031Z,9.10
2019-05-05T13:37:03.603Z,8.80
2019-05-05T13:39:34.024Z,8.40
2019-05-05T13:42:04.611Z,8.10
2019-05-05T13:44:50.733Z,7.90
2019-05-05T13:47:20.124Z,7.80
2019-05-05T13:49:50.987Z,7.70
2019-05-05T13:52:20.173Z,7.60
2019-05-05T13:54:49.333Z,7.50
2019-05-05T13:57:18.576Z,7.30
2019-05-05T13:59:47.843Z,7.10
2019-05-05T14:02:17.129Z,7.00
2019-05-05T14:04:46.374Z,6.90
2019-05-05T14:07:15.615Z,7.30
2019-05-05T14:09:45.921Z,7.60
2019-05-05T14:12:15.095Z,8.00
2019-05-05T14:14:44.335Z,8.40
2019-05-05T14:17:14.739Z,8.60
2019-05-05T14:19:44.640Z,8.90
2019-05-05T14:22:15.114Z,9.20
2019-05-05T14:24:46.178Z,9.70
2019-05-05T14:27:16.342Z,9.90
2019-05-05T14:29:56.222Z,10.20
2019-05-05T14:32:27.179Z,10.60
2019-05-05T14:35:00.777Z,11.80
2019-05-05T14:37:31.602Z,12.70
2019-05-05T14:40:00.834Z,12.80
2019-05-05T14:42:31.779Z,12.50
2019-05-05T14:45:01.082Z,12.50
2019-05-05T14:47:33.459Z,12.90
2019-05-05T14:50:04.531Z,13.70
2019-05-05T14:52:33.393Z,14.20
2019-05-05T14:55:03.875Z,13.40
2019-05-05T14:57:33.688Z,12.80
2019-05-05T15:00:04.806Z,12.30
2019-05-05T15:02:34.745Z,12.00
2019-05-05T15:05:24.468Z,11.60
2019-05-05T15:08:13.626Z,11.60
2019-05-05T15:11:01.175Z,11.70
2019-05-05T15:13:30.352Z,11.60
2019-05-05T15:15:59.645Z,11.20
2019-05-05T15:18:28.804Z,11.00
2019-05-05T15:20:58.116Z,10.70
2019-05-05T15:23:27.478Z,10.40
2019-05-05T15:25:56.758Z,10.00
2019-05-05T15:28:25.954Z,9.70
2019-05-05T15:30:55.178Z,9.40
2019-05-05T15:33:24.553Z,9.30
2019-05-05T15:35:54.325Z,9.10
2019-05-05T15:38:24.437Z,9.00
2019-05-05T15:40:54.743Z,8.90
2019-05-05T15:43:24.393Z,8.80
2019-05-05T15:45:54.128Z,8.90
2019-05-05T15:48:23.408Z,9.20
2019-05-05T15:50:54.502Z,9.40
2019-05-05T15:53:23.590Z,9.50
2019-05-05T15:55:54.013Z,9.40
2019-05-05T15:58:24.463Z,9.50
2019-05-05T16:00:53.913Z,9.60
2019-05-05T16:03:23.184Z,9.70
2019-05-05T16:05:54.128Z,9.50
2019-05-05T16:08:23.186Z,9.40
2019-05-05T16:10:54.442Z,9.30
2019-05-05T16:13:23.385Z,9.20
2019-05-05T16:15:55.712Z,9.20
2019-05-05T16:18:32.559Z,9.10
2019-05-05T16:21:09.160Z,9.00
2019-05-05T16:23:44.286Z,9.00
2019-05-05T16:26:14.060Z,9.00
2019-05-05T16:28:44.554Z,9.00
2019-05-05T16:31:14.519Z,9.10
2019-05-05T16:33:44.195Z,9.20
2019-05-05T16:36:13.930Z,9.30
2019-05-05T16:38:43.659Z,9.30
2019-05-05T16:41:13.597Z,9.50
2019-05-05T16:43:44.332Z,9.80
2019-05-05T16:46:16.687Z,10.00
2019-05-05T16:48:44.766Z,10.20
2019-05-05T16:51:15.660Z,10.10
2019-05-05T16:53:44.958Z,10.00
2019-05-05T16:56:15.795Z,9.80
2019-05-05T16:58:46.013Z,9.60
2019-05-05T17:01:16.654Z,9.60
2019-05-05T17:03:46.055Z,9.60
2019-05-05T17:06:15.360Z,9.60
2019-05-05T17:08:44.648Z,9.50
2019-05-05T17:11:14.985Z,9.40
2019-05-05T17:13:49.178Z,9.30
2019-05-05T17:16:35.423Z,9.30
2019-05-05T17:19:13.977Z,9.20
2019-05-05T17:21:53.895Z,9.20
2019-05-05T17:24:24.233Z,9.20
2019-05-05T17:26:54.942Z,9.10
2019-05-05T17:29:24.460Z,9.10
2019-05-05T17:31:54.084Z,9.10
2019-05-05T17:34:24.791Z,9.00
2019-05-05T17:36:54.040Z,8.90
2019-05-05T17:39:25.100Z,8.70
2019-05-05T17:41:56.026Z,8.60
2019-05-05T17:44:26.930Z,8.30
2019-05-05T17:47:04.443Z,8.20
2019-05-05T17:49:54.113Z,8.20
2019-05-05T17:52:27.458Z,8.10
2019-05-05T17:54:57.403Z,8.00
2019-05-05T17:57:26.553Z,8.00
2019-05-05T17:59:55.720Z,7.90
2019-05-05T18:02:24.950Z,8.00
2019-05-05T18:04:54.306Z,8.00
2019-05-05T18:07:25.219Z,8.00
2019-05-05T18:09:56.076Z,8.00
2019-05-05T18:12:26.941Z,8.00
2019-05-05T18:14:57.751Z,7.90
2019-05-05T18:17:26.938Z,7.90
2019-05-05T18:19:56.134Z,7.80
2019-05-05T18:22:25.317Z,7.90
2019-05-05T18:24:54.494Z,7.80
2019-05-05T18:27:23.818Z,7.70
2019-05-05T18:29:54.407Z,7.60
2019-05-05T18:32:23.848Z,7.50
2019-05-05T18:34:54.545Z,7.40
2019-05-05T18:37:24.969Z,7.30
2019-05-05T18:39:54.751Z,7.20
2019-05-05T18:42:25.024Z,7.20
2019-05-05T18:44:56.940Z,7.20
2019-05-05T18:47:26.174Z,7.10
2019-05-05T18:49:55.410Z,7.10
2019-05-05T18:52:24.716Z,7.10
2019-05-05T18:54:54.434Z,7.10
2019-05-05T18:57:24.856Z,7.20
2019-05-05T18:59:54.422Z,7.30
2019-05-05T19:02:28.358Z,7.30
2019-05-05T19:05:16.690Z,7.30
2019-05-05T19:07:56.008Z,7.20
2019-05-05T19:10:24.518Z,7.10
2019-05-05T19:12:54.337Z,7.00
2019-05-05T19:15:24.475Z,7.00
2019-05-05T19:17:53.963Z,7.10
2019-05-05T19:20:27.582Z,7.20
2019-05-05T19:22:57.464Z,7.30
2019-05-05T19:25:26.753Z,7.20
2019-05-05T19:27:56.007Z,7.20
2019-05-05T19:30:25.761Z,7.30
2019-05-05T19:32:55.048Z,7.40
2019-05-05T19:35:40.228Z,7.40
2019-05-05T19:37:55.123Z,7.50
2019-05-05T19:40:24.426Z,7.60
2019-05-05T19:42:53.964Z,7.60
2019-05-05T19:45:24.097Z,7.60
2019-05-05T19:47:54.103Z,7.70
2019-05-05T19:50:24.967Z,7.60
2019-05-05T19:52:56.320Z,7.50
2019-05-05T19:55:26.384Z,7.50
2019-05-05T19:57:55.606Z,7.50
2019-05-05T20:00:26.353Z,7.50
2019-05-05T20:03:04.578Z,7.50
2019-05-05T20:05:26.656Z,7.50
2019-05-05T20:07:55.827Z,7.50
2019-05-05T20:10:24.994Z,7.50
2019-05-05T20:12:54.280Z,7.50
2019-05-05T20:15:25.172Z,7.40
2019-05-05T20:17:54.331Z,7.30
2019-05-05T20:20:23.512Z,7.20
2019-05-05T20:22:54.677Z,7.20
2019-05-05T20:25:24.418Z,7.20
2019-05-05T20:27:55.958Z,7.30
2019-05-05T20:30:24.898Z,7.30
2019-05-05T20:32:56.323Z,7.30
2019-05-05T20:35:27.501Z,7.20
2019-05-05T20:38:04.881Z,7.30
2019-05-05T20:40:54.606Z,7.20
2019-05-05T20:43:18.742Z,7.20
2019-05-05T20:45:47.918Z,7.20
2019-05-05T20:48:17.124Z,7.20
2019-05-05T20:50:46.286Z,7.20
2019-05-05T20:53:15.481Z,7.20
2019-05-05T20:55:44.840Z,7.10
2019-05-05T20:58:14.608Z,7.10
2019-05-05T21:00:44.334Z,7.20
2019-05-05T21:03:14.199Z,7.20
2019-05-05T21:05:44.032Z,7.10
2019-05-05T21:08:14.166Z,7.20
2019-05-05T21:10:44.575Z,7.10
2019-05-05T21:13:14.359Z,7.10
2019-05-05T21:15:45.183Z,7.10
2019-05-05T21:18:14.555Z,7.20
2019-05-05T21:20:43.817Z,7.20
2019-05-05T21:23:24.564Z,7.10
2019-05-05T21:26:01.401Z,7.00
2019-05-05T21:28:30.627Z,6.80
2019-05-05T21:30:59.784Z,6.60
2019-05-05T21:33:28.929Z,6.50
2019-05-05T21:35:58.071Z,6.60
2019-05-05T21:38:27.248Z,6.60
2019-05-05T21:40:56.419Z,6.60
2019-05-05T21:43:26.100Z,6.50
2019-05-05T21:45:55.299Z,6.60
2019-05-05T21:48:24.445Z,6.60
2019-05-05T21:51:04.749Z,6.60
2019-05-05T21:53:35.754Z,6.60
2019-05-05T21:56:09.487Z,6.60
2019-05-05T21:58:43.954Z,6.50
2019-05-05T22:01:15.170Z,6.50
2019-05-05T22:03:44.511Z,6.40
2019-05-05T22:06:14.561Z,6.40
2019-05-05T22:08:43.998Z,6.40
2019-05-05T22:11:14.677Z,6.40
2019-05-05T22:13:44.363Z,6.30
2019-05-05T22:16:13.812Z,6.30
2019-05-05T22:18:44.668Z,6.30
2019-05-05T22:21:18.299Z,6.30
2019-05-05T22:23:49.079Z,6.40
2019-05-05T22:26:18.242Z,6.50
2019-05-05T22:28:47.391Z,6.60
2019-05-05T22:31:16.672Z,6.60
2019-05-05T22:33:45.855Z,6.60
2019-05-05T22:36:15.031Z,6.60
2019-05-05T22:38:44.662Z,6.60
2019-05-05T22:41:15.873Z,6.60
2019-05-05T22:43:44.786Z,6.50
2019-05-05T22:46:14.209Z,6.50
2019-05-05T22:48:44.010Z,6.50
2019-05-05T22:51:14.400Z,6.50
2019-05-05T22:53:44.180Z,6.60
2019-05-05T22:56:14.756Z,6.70
2019-05-05T22:58:44.063Z,6.60
2019-05-05T23:01:13.700Z,6.50
2019-05-05T23:03:47.341Z,6.40
2019-05-05T23:06:34.463Z,6.30
2019-05-05T23:09:04.955Z,6.30
2019-05-05T23:11:34.980Z,6.30
2019-05-05T23:14:22.344Z,6.40
2019-05-05T23:16:53.803Z,6.40
2019-05-05T23:19:25.722Z,6.40
2019-05-05T23:21:56.619Z,6.30
2019-05-05T23:24:30.181Z,6.20
2019-05-05T23:26:59.335Z,6.00
2019-05-05T23:29:28.497Z,6.00
2019-05-05T23:31:57.660Z,6.00
2019-05-05T23:34:26.810Z,5.90
2019-05-05T23:36:56.025Z,5.90
2019-05-05T23:39:25.177Z,6.00
2019-05-05T23:41:54.832Z,6.10
2019-05-05T23:44:24.108Z,6.10
2019-05-05T23:46:53.875Z,6.10
2019-05-05T23:49:24.266Z,6.10
2019-05-05T23:51:54.149Z,6.00
2019-05-05T23:54:24.603Z,6.00
2019-05-05T23:56:54.283Z,6.00
2019-05-05T23:59:24.043Z,5.90
